Marvell, Arkansas
Current Conditions -  °F | °C
As of 8:15 AM on Wednesday 26 Nov 2014 (Local Time) from KCKM Reporting Station
Clear Clear  
Wind Chill: 33°   Ceiling: Unl
Heat Index: 39°   Visibility: 10mi
Dew Point: 32°   Wind: 9mph
Humidity: 75%   Direction: 140°SE
Pressure: 30.15"   Gusts: NA
Location:  34.56°N, 90.91°W
Report Text: KCKM 261415Z AUTO 14008KT 10SM CLR 04/00 A3015 RMK AO1
Loading
Personal Weather Stations






























Interactive Weather Map New forecast layout! Learn more

10-Day Weather Forecast

Advertisements
Track Severe Weather on mobile